createdAt,value
2022-11-26T00:03:51.717Z,3.50
2022-11-26T00:08:53.191Z,3.60
2022-11-26T00:13:54.652Z,3.70
2022-11-26T00:18:56.164Z,3.70
2022-11-26T00:23:57.621Z,3.80
2022-11-26T00:28:59.127Z,3.90
2022-11-26T00:34:00.628Z,4.00
2022-11-26T00:39:02.079Z,4.00
2022-11-26T00:44:03.557Z,4.10
2022-11-26T00:49:05.055Z,4.10
2022-11-26T00:54:06.541Z,4.10
2022-11-26T00:59:08.015Z,4.20
2022-11-26T01:04:09.480Z,4.30
2022-11-26T01:09:10.972Z,4.30
2022-11-26T01:14:12.481Z,4.30
2022-11-26T01:19:14.088Z,4.30
2022-11-26T01:24:15.618Z,4.30
2022-11-26T01:29:17.118Z,4.30
2022-11-26T01:34:18.579Z,4.30
2022-11-26T01:39:20.090Z,4.20
2022-11-26T01:44:21.591Z,4.30
2022-11-26T01:49:23.054Z,4.20
2022-11-26T01:54:24.513Z,4.20
2022-11-26T01:59:26.027Z,4.30
2022-11-26T02:04:27.554Z,4.30
2022-11-26T02:09:29.052Z,4.30
2022-11-26T02:14:30.541Z,4.30
2022-11-26T02:19:32.051Z,4.40
2022-11-26T02:24:33.542Z,4.40
2022-11-26T02:29:35.046Z,4.40
2022-11-26T02:34:37.972Z,4.50
2022-11-26T02:39:39.662Z,4.50
2022-11-26T02:44:41.149Z,4.60
2022-11-26T02:49:42.774Z,4.60
2022-11-26T02:54:44.237Z,4.70
2022-11-26T02:59:45.748Z,4.80
2022-11-26T03:04:47.232Z,4.80
2022-11-26T03:09:48.706Z,4.90
2022-11-26T03:14:50.184Z,5.00
2022-11-26T03:19:51.679Z,5.00
2022-11-26T03:24:53.171Z,5.00
2022-11-26T03:29:54.673Z,5.10
2022-11-26T03:34:56.145Z,5.10
2022-11-26T03:39:57.633Z,5.20
2022-11-26T03:44:59.108Z,5.20
2022-11-26T03:50:00.583Z,5.30
2022-11-26T03:55:02.065Z,5.30
2022-11-26T04:00:03.604Z,5.30
2022-11-26T04:05:05.138Z,5.40
2022-11-26T04:10:06.736Z,5.40
2022-11-26T04:15:08.261Z,5.50
2022-11-26T04:20:09.787Z,5.50
2022-11-26T04:25:11.277Z,5.50
2022-11-26T04:30:12.768Z,5.60
2022-11-26T04:35:14.222Z,5.60
2022-11-26T04:40:15.688Z,5.70
2022-11-26T04:45:17.188Z,5.70
2022-11-26T04:50:18.707Z,5.70
2022-11-26T04:55:20.213Z,5.80
2022-11-26T05:00:21.702Z,5.80
2022-11-26T05:05:23.196Z,5.80
2022-11-26T05:10:24.640Z,5.90
2022-11-26T05:15:26.112Z,5.90
2022-11-26T05:20:27.572Z,6.00
2022-11-26T05:25:29.072Z,6.00
2022-11-26T05:30:30.590Z,6.10
2022-11-26T05:35:32.125Z,6.10
2022-11-26T05:40:33.611Z,6.10
2022-11-26T05:45:35.118Z,6.20
2022-11-26T05:50:36.646Z,6.20
2022-11-26T05:55:38.166Z,6.30
2022-11-26T06:00:39.679Z,6.30
2022-11-26T06:05:41.169Z,6.30
2022-11-26T06:10:42.643Z,6.30
2022-11-26T06:15:44.142Z,6.30
2022-11-26T06:20:45.647Z,6.40
2022-11-26T06:25:47.171Z,6.40
2022-11-26T06:30:48.659Z,6.40
2022-11-26T06:35:50.167Z,6.40
2022-11-26T06:40:51.664Z,6.40
2022-11-26T06:45:53.158Z,6.50
2022-11-26T06:50:54.635Z,6.50
2022-11-26T06:55:56.137Z,6.50
2022-11-26T07:00:57.695Z,6.50
2022-11-26T07:05:59.249Z,6.50
2022-11-26T07:11:00.749Z,6.60
2022-11-26T07:16:02.267Z,6.60
2022-11-26T07:21:03.781Z,6.60
2022-11-26T07:26:05.238Z,6.70
2022-11-26T07:31:10.336Z,6.70
2022-11-26T07:36:14.557Z,6.70
2022-11-26T07:41:16.064Z,6.80
2022-11-26T07:46:17.649Z,6.80
2022-11-26T07:51:19.211Z,6.80
2022-11-26T07:56:20.714Z,6.80
2022-11-26T08:01:22.312Z,6.90
2022-11-26T08:06:23.871Z,6.90
2022-11-26T08:11:25.370Z,7.00
2022-11-26T08:16:28.885Z,7.00
2022-11-26T08:21:30.793Z,7.00
2022-11-26T08:26:36.191Z,7.10
2022-11-26T08:31:45.206Z,7.20
2022-11-26T08:36:47.782Z,7.20
2022-11-26T08:41:52.349Z,7.20
2022-11-26T08:46:54.059Z,7.30
2022-11-26T08:51:55.549Z,7.30
2022-11-26T08:56:57.055Z,7.40
2022-11-26T09:01:59.632Z,7.40
2022-11-26T09:07:01.170Z,7.40
2022-11-26T09:12:02.635Z,7.50
2022-11-26T09:17:04.155Z,7.50
2022-11-26T09:22:05.676Z,7.50
2022-11-26T09:27:08.269Z,7.50
2022-11-26T09:32:30.940Z,7.50
2022-11-26T09:37:31.312Z,7.50
2022-11-26T09:42:32.767Z,7.50
2022-11-26T09:47:34.279Z,7.50
2022-11-26T09:52:35.733Z,7.50
2022-11-26T09:57:37.218Z,7.50
2022-11-26T10:02:41.129Z,7.60
2022-11-26T10:07:42.706Z,7.60
2022-11-26T10:13:10.888Z,7.60
2022-11-26T10:18:05.643Z,7.70
2022-11-26T10:23:07.128Z,7.70
2022-11-26T10:28:08.583Z,7.80
2022-11-26T10:33:10.076Z,7.90
2022-11-26T10:38:11.566Z,8.00
2022-11-26T10:43:13.092Z,8.10
2022-11-26T10:48:14.546Z,8.10
2022-11-26T10:53:16.032Z,8.00
2022-11-26T10:58:17.485Z,7.90
2022-11-26T11:03:25.155Z,7.80
2022-11-26T11:08:39.914Z,7.80
2022-11-26T11:13:41.387Z,7.80
2022-11-26T11:18:42.850Z,7.80
2022-11-26T11:24:07.543Z,7.70
2022-11-26T11:29:05.826Z,7.70
2022-11-26T11:34:07.284Z,7.70
2022-11-26T11:39:08.771Z,7.70
2022-11-26T11:44:10.256Z,7.70
2022-11-26T11:49:11.703Z,7.70
2022-11-26T11:54:13.151Z,7.70
2022-11-26T11:59:14.627Z,7.60
2022-11-26T12:04:19.623Z,7.60
2022-11-26T12:09:21.454Z,7.60
2022-11-26T12:14:22.946Z,7.60
2022-11-26T12:19:24.435Z,7.70
2022-11-26T12:24:25.909Z,7.70
2022-11-26T12:29:27.393Z,7.70
2022-11-26T12:34:28.888Z,7.70
2022-11-26T12:39:30.341Z,7.80
2022-11-26T12:44:31.808Z,7.80
2022-11-26T12:49:33.297Z,7.80
2022-11-26T12:54:34.809Z,7.90
2022-11-26T12:59:36.310Z,7.80
2022-11-26T13:04:38.445Z,7.70
2022-11-26T13:09:40.214Z,7.60
2022-11-26T13:14:42.110Z,7.50
2022-11-26T13:19:43.666Z,7.50
2022-11-26T13:24:45.164Z,7.40
2022-11-26T13:29:46.661Z,7.40
2022-11-26T13:34:48.182Z,7.30
2022-11-26T13:39:49.639Z,7.40
2022-11-26T13:44:51.137Z,7.30
2022-11-26T13:49:52.703Z,7.30
2022-11-26T13:54:54.166Z,7.30
2022-11-26T13:59:55.649Z,7.30
2022-11-26T14:04:57.125Z,7.30
2022-11-26T14:09:58.631Z,7.30
2022-11-26T14:15:00.145Z,7.30
2022-11-26T14:20:01.617Z,7.30
2022-11-26T14:25:03.077Z,7.30
2022-11-26T14:30:04.555Z,7.30
2022-11-26T14:35:06.085Z,7.20
2022-11-26T14:40:07.563Z,7.20
2022-11-26T14:45:09.039Z,7.10
2022-11-26T14:50:10.523Z,7.10
2022-11-26T14:55:12.011Z,7.00
2022-11-26T15:00:13.500Z,7.00
2022-11-26T15:05:15.004Z,6.90
2022-11-26T15:10:16.512Z,6.90
2022-11-26T15:15:18.011Z,6.90
2022-11-26T15:20:19.508Z,7.00
2022-11-26T15:25:20.991Z,7.00
2022-11-26T15:30:22.461Z,7.00
2022-11-26T15:35:23.944Z,7.00
2022-11-26T15:40:25.405Z,6.80
2022-11-26T15:45:26.883Z,6.90
2022-11-26T15:50:28.380Z,6.90
2022-11-26T15:55:29.888Z,7.00
2022-11-26T16:00:31.485Z,6.90
2022-11-26T16:05:32.962Z,6.90
2022-11-26T16:10:34.437Z,6.90
2022-11-26T16:15:35.943Z,6.80
2022-11-26T16:20:37.420Z,6.80
2022-11-26T16:25:38.907Z,6.90
2022-11-26T16:30:40.550Z,6.90
2022-11-26T16:35:46.576Z,6.90
2022-11-26T16:40:48.429Z,6.90
2022-11-26T16:45:49.939Z,6.90
2022-11-26T16:50:51.428Z,6.90
2022-11-26T16:55:52.925Z,6.90
2022-11-26T17:00:54.397Z,6.90
2022-11-26T17:05:55.879Z,6.90
2022-11-26T17:10:57.332Z,6.90
2022-11-26T17:15:58.820Z,6.80
2022-11-26T17:21:00.278Z,6.90
2022-11-26T17:26:01.772Z,6.70
2022-11-26T17:31:03.301Z,6.60
2022-11-26T17:36:04.842Z,6.50
2022-11-26T17:41:06.343Z,6.50
2022-11-26T17:46:07.861Z,6.50
2022-11-26T17:51:09.351Z,6.50
2022-11-26T17:56:10.844Z,6.50
2022-11-26T18:01:12.456Z,6.60
2022-11-26T18:06:13.994Z,6.60
2022-11-26T18:11:15.455Z,6.60
2022-11-26T18:16:17.005Z,6.60
2022-11-26T18:21:18.500Z,6.50
2022-11-26T18:26:20.001Z,6.40
2022-11-26T18:31:21.517Z,6.20
2022-11-26T18:36:22.998Z,6.20
2022-11-26T18:41:24.444Z,6.20
2022-11-26T18:46:25.997Z,6.20
2022-11-26T18:51:27.536Z,6.30
2022-11-26T18:56:28.996Z,6.30
2022-11-26T19:01:30.539Z,6.30
2022-11-26T19:06:32.078Z,6.30
2022-11-26T19:11:33.552Z,6.20
2022-11-26T19:16:35.064Z,6.20
2022-11-26T19:21:36.626Z,6.20
2022-11-26T19:26:38.110Z,6.20
2022-11-26T19:31:39.640Z,6.20
2022-11-26T19:36:41.148Z,6.20
2022-11-26T19:41:42.613Z,6.30
2022-11-26T19:46:44.103Z,6.30
2022-11-26T19:51:45.611Z,6.40
2022-11-26T19:56:47.132Z,6.20
2022-11-26T20:01:48.708Z,6.20
2022-11-26T20:06:50.295Z,6.20
2022-11-26T20:11:51.797Z,6.20
2022-11-26T20:16:56.384Z,6.20
2022-11-26T20:22:02.074Z,6.20
2022-11-26T20:27:03.577Z,6.10
2022-11-26T20:32:05.089Z,6.10
2022-11-26T20:37:06.572Z,6.10
2022-11-26T20:42:08.043Z,6.10
2022-11-26T20:47:09.530Z,6.00
2022-11-26T20:52:11.032Z,6.00
2022-11-26T20:57:12.500Z,6.00
2022-11-26T21:02:14.000Z,6.00
2022-11-26T21:07:15.544Z,6.00
2022-11-26T21:12:17.059Z,6.10
2022-11-26T21:17:18.744Z,6.10
2022-11-26T21:22:20.401Z,6.10
2022-11-26T21:27:21.908Z,6.20
2022-11-26T21:32:23.419Z,6.10
2022-11-26T21:37:24.921Z,6.00
2022-11-26T21:42:26.437Z,6.10
2022-11-26T21:47:27.940Z,6.10
2022-11-26T21:52:29.476Z,6.10
2022-11-26T21:57:30.946Z,6.10
2022-11-26T22:02:32.577Z,6.10
2022-11-26T22:07:34.163Z,6.20
2022-11-26T22:12:35.734Z,6.10
2022-11-26T22:17:37.265Z,6.10
2022-11-26T22:22:38.766Z,6.10
2022-11-26T22:27:40.264Z,6.20
2022-11-26T22:32:41.748Z,6.20
2022-11-26T22:37:43.238Z,6.10
2022-11-26T22:42:44.738Z,6.00
2022-11-26T22:47:50.021Z,6.00
2022-11-26T22:52:54.127Z,6.00
2022-11-26T22:57:55.618Z,6.00
2022-11-26T23:02:57.247Z,5.90
2022-11-26T23:07:58.867Z,5.80
2022-11-26T23:13:00.408Z,5.80
2022-11-26T23:18:01.877Z,5.80
2022-11-26T23:23:03.341Z,5.80
2022-11-26T23:28:04.834Z,5.80
2022-11-26T23:33:06.307Z,5.80
2022-11-26T23:38:07.786Z,5.90
2022-11-26T23:43:09.290Z,5.90
2022-11-26T23:48:10.759Z,5.90
2022-11-26T23:53:12.255Z,5.90
2022-11-26T23:58:13.727Z,5.90
